Change the Weather History Date:

Monday, February 11, 2013

  Actual Average Record
Temperature  
Mean Temperature 16 °F -  
Max Temperature 23 °F 19 °F 50 °F (2002)
Min Temperature 10 °F -1 °F -33 °F (1939)
Degree Days  
Heating Degree Days 48    
Moisture  
Dew Point 16 °F    
Average Humidity 93    
Maximum Humidity 100    
Minimum Humidity 86    
Precipitation  
Precipitation 0.00 in - - ()
Sea Level Pressure  
Sea Level Pressure 29.83 in    
Wind  
Wind Speed 18 mph (NW)    
Max Wind Speed 25 mph    
Max Gust Speed 37 mph    
Visibility 5 miles    
Events Snow    
Averages and records for this station are not official NWS values.
T = Trace of Precipitation, MM = Missing Value Source: NWS Daily Summary

Daily Weather History Graph

Daily Weather History Graph

Search for Another Location

Airport or City:

Trip Planner

Search our weather history database for the weather conditions in past years. The results will help you decide how hot, cold, wet, or windy it might be!

Date:

Astronomy

Feb. 11, 2013 Rise Set
Actual Time 7:33 AM CST 5:42 PM CST
Civil Twilight 7:02 AM CST 6:14 PM CST
Nautical Twilight 6:26 AM CST 6:49 PM CST
Astronomical Twilight 5:51 AM CST 7:25 PM CST
Moon 7:49 AM CST (2/11) 7:51 PM CST (2/11)
Length of Visible Light 11h 12m
Length of Day
10h 09m
Waxing Crescent, 3% of the Moon is Illuminated
Feb 11
Waxing Crescent
Feb 17
First Quarter
Feb 25
Full
Mar 4
Last Quarter
Mar 11
New

Hourly Weather History & Observations

Time (CST) Temp. Windchill Dew Point Humidity Pressure Visibility Wind Dir Wind Speed Gust Speed Precip Events Conditions
12:15 AM 23.0 °F 9.2 °F 23.0 °F 100% 29.56 in 1.2 mi North 17.3 mph 26.5 mph N/A Snow Light Snow
12:36 AM 23.0 °F 7.2 °F 23.0 °F 100% 29.58 in 1.2 mi North 23.0 mph 36.8 mph N/A Snow Light Snow
12:55 AM 23.0 °F 8.3 °F 23.0 °F 100% 29.58 in 1.2 mi North 19.6 mph 35.7 mph N/A Snow Light Snow
1:15 AM 23.0 °F 7.2 °F 23.0 °F 100% 29.59 in 1.5 mi NNW 23.0 mph 32.2 mph N/A Snow Light Snow
1:35 AM 23.0 °F 7.2 °F 23.0 °F 100% 29.60 in 1.8 mi NNW 23.0 mph 34.5 mph N/A Snow Light Snow
1:55 AM 23.0 °F 6.9 °F 23.0 °F 100% 29.61 in 1.8 mi NNW 24.2 mph 35.7 mph N/A Snow Light Snow
2:16 AM 23.0 °F 7.6 °F 23.0 °F 100% 29.62 in 1.5 mi North 21.9 mph 36.8 mph N/A Snow Light Snow
2:35 AM 23.0 °F 7.6 °F 23.0 °F 100% 29.63 in 1.8 mi North 21.9 mph 33.4 mph N/A Snow Light Snow
2:55 AM 23.0 °F 6.9 °F 21.2 °F 93% 29.64 in 1.8 mi NNW 24.2 mph 33.4 mph N/A Snow Light Snow
3:16 AM 23.0 °F 7.2 °F 21.2 °F 93% 29.65 in 1.8 mi NNW 23.0 mph 32.2 mph N/A Snow Light Snow
3:35 AM 23.0 °F 8.0 °F 21.2 °F 93% 29.65 in 1.5 mi NNW 20.7 mph 29.9 mph N/A Snow Light Snow
3:55 AM 23.0 °F 7.2 °F 21.2 °F 93% 29.66 in 1.5 mi NNW 23.0 mph 32.2 mph N/A Snow Light Snow
4:16 AM 23.0 °F 6.6 °F 21.2 °F 93% 29.67 in 1.8 mi NNW 25.3 mph 31.1 mph N/A Snow Light Snow
4:35 AM 23.0 °F 7.2 °F 21.2 °F 93% 29.68 in 1.8 mi NNW 23.0 mph 32.2 mph N/A Snow Light Snow
4:55 AM 21.2 °F 5.2 °F 21.2 °F 100% 29.70 in 1.8 mi NNW 21.9 mph 31.1 mph N/A Snow Light Snow
5:16 AM 21.2 °F 4.9 °F 21.2 °F 100% 29.71 in 2.0 mi NNW 23.0 mph 33.4 mph N/A Snow Light Snow
5:36 AM 21.2 °F 5.2 °F 21.2 °F 100% 29.71 in 2.5 mi NNW 21.9 mph 25.3 mph N/A Snow Light Snow
5:55 AM 21.2 °F 6.0 °F 19.4 °F 93% 29.73 in 3.0 mi NNW 19.6 mph 29.9 mph N/A Snow Light Snow
6:16 AM 21.2 °F 5.2 °F 19.4 °F 93% 29.73 in 2.5 mi NNW 21.9 mph 31.1 mph N/A Snow Light Snow
6:36 AM 21.2 °F 5.2 °F 19.4 °F 93% 29.74 in 1.8 mi NNW 21.9 mph 32.2 mph N/A Snow Light Snow
6:55 AM 21.2 °F 6.0 °F 19.4 °F 93% 29.75 in 2.0 mi NNW 19.6 mph 28.8 mph N/A Snow Light Snow
7:16 AM 21.2 °F 4.9 °F 19.4 °F 93% 29.76 in 2.0 mi NNW 23.0 mph 29.9 mph N/A Snow Light Snow
7:35 AM 19.4 °F 2.8 °F 19.4 °F 100% 29.77 in 1.8 mi NNW 21.9 mph 25.3 mph N/A Snow Light Snow
7:56 AM 19.4 °F 1.8 °F 17.6 °F 93% 29.78 in 2.0 mi NNW 25.3 mph 29.9 mph N/A Snow Light Snow
8:15 AM 19.4 °F 2.5 °F 17.6 °F 93% 29.80 in 2.5 mi NNW 23.0 mph 28.8 mph N/A   Overcast
8:35 AM 19.4 °F 2.8 °F 17.6 °F 93% 29.81 in 2.0 mi NW 21.9 mph 29.9 mph N/A   Overcast
8:56 AM 17.6 °F 0.1 °F 17.6 °F 100% 29.82 in 2.5 mi NW 23.0 mph 31.1 mph N/A   Overcast
9:15 AM 17.6 °F 0.1 °F 15.8 °F 93% 29.83 in 2.0 mi NNW 23.0 mph 32.2 mph N/A   Overcast
9:35 AM 17.6 °F 0.5 °F 14.0 °F 86% 29.84 in 1.8 mi NNW 21.9 mph 27.6 mph N/A   Overcast
9:56 AM 17.6 °F 1.3 °F 14.0 °F 86% 29.85 in 2.5 mi NW 19.6 mph 33.4 mph N/A   Overcast
10:15 AM 15.8 °F -2.7 °F 14.0 °F 93% 29.86 in 2.5 mi NW 24.2 mph 28.8 mph N/A   Overcast
10:35 AM 15.8 °F -0.2 °F 14.0 °F 93% 29.87 in 3.0 mi NW 17.3 mph 26.5 mph N/A Snow Light Snow
10:56 AM 15.8 °F -1.5 °F 14.0 °F 93% 29.88 in 3.0 mi NW 20.7 mph 24.2 mph N/A Snow Light Snow
11:15 AM 15.8 °F -1.1 °F 12.2 °F 86% 29.88 in 2.5 mi NW 19.6 mph 26.5 mph N/A Snow Light Snow
11:35 AM 14.0 °F -3.9 °F 12.2 °F 93% 29.89 in 3.0 mi NNW 20.7 mph 26.5 mph N/A Snow Light Snow
11:56 AM 15.8 °F -1.9 °F 12.2 °F 86% 29.89 in 3.0 mi NNW 21.9 mph 28.8 mph N/A Snow Light Snow
12:15 PM 15.8 °F -1.1 °F 12.2 °F 86% 29.89 in 4.0 mi NW 19.6 mph - N/A Snow Light Snow
12:35 PM 15.8 °F 1.4 °F 12.2 °F 86% 29.90 in 4.0 mi NW 13.8 mph 23.0 mph N/A Snow Light Snow
12:56 PM 14.0 °F -3.0 °F 12.2 °F 93% 29.91 in 2.0 mi NW 18.4 mph 24.2 mph N/A Snow Light Snow
1:15 PM 14.0 °F -2.5 °F 12.2 °F 93% 29.91 in 2.5 mi NNW 17.3 mph 24.2 mph N/A Snow Light Snow
1:36 PM 15.8 °F -0.2 °F 12.2 °F 86% 29.92 in 4.0 mi NW 17.3 mph 21.9 mph N/A Snow Light Snow
1:56 PM 15.8 °F -0.2 °F 12.2 °F 86% 29.92 in 4.0 mi NW 17.3 mph 21.9 mph N/A Snow Light Snow
2:15 PM 15.8 °F 0.3 °F 14.0 °F 93% 29.92 in 7.0 mi NW 16.1 mph 23.0 mph N/A Snow Light Snow
2:36 PM 17.6 °F 4.3 °F 14.0 °F 86% 29.92 in 3.0 mi NW 12.7 mph - N/A Snow Light Snow
2:56 PM 17.6 °F 3.7 °F 14.0 °F 86% 29.92 in 7.0 mi NNW 13.8 mph 20.7 mph N/A Snow Light Snow
3:15 PM 17.6 °F 3.2 °F 14.0 °F 86% 29.93 in 7.0 mi NW 15.0 mph 19.6 mph N/A Snow Light Snow
3:36 PM 17.6 °F 3.7 °F 14.0 °F 86% 29.93 in 5.0 mi NNW 13.8 mph - N/A Snow Light Snow
3:56 PM 17.6 °F 6.4 °F 15.8 °F 93% 29.93 in 5.0 mi NNW 9.2 mph - N/A Snow Light Snow
4:56 PM 17.6 °F 8.2 °F 15.8 °F 93% 29.94 in 10.0 mi NW 6.9 mph - N/A   Overcast
5:15 PM 17.6 °F 8.2 °F 15.8 °F 93% 29.94 in 10.0 mi NW 6.9 mph - N/A Snow Light Snow
5:36 PM 17.6 °F 7.3 °F 15.8 °F 93% 29.94 in 10.0 mi NW 8.1 mph - N/A   Overcast
5:56 PM 17.6 °F 8.2 °F 15.8 °F 93% 29.94 in 10.0 mi WNW 6.9 mph - N/A   Overcast
6:15 PM 17.6 °F 9.3 °F 15.8 °F 93% 29.94 in 10.0 mi WNW 5.8 mph - N/A   Overcast
6:32 PM 17.6 °F 10.7 °F 15.8 °F 93% 29.95 in 10.0 mi WNW 4.6 mph - N/A   Overcast
6:55 PM 17.6 °F 10.7 °F 15.8 °F 93% 29.95 in 10.0 mi West 4.6 mph - N/A Snow Light Snow
7:16 PM 17.6 °F 10.7 °F 14.0 °F 86% 29.95 in 10.0 mi West 4.6 mph - N/A   Scattered Clouds
7:36 PM 15.8 °F 8.6 °F 14.0 °F 93% 29.96 in 10.0 mi West 4.6 mph - N/A   Clear
7:55 PM 15.8 °F 6.1 °F 14.0 °F 93% 29.96 in 10.0 mi West 6.9 mph - N/A   Clear
8:16 PM 15.8 °F 6.1 °F 14.0 °F 93% 29.96 in 10.0 mi West 6.9 mph - N/A   Scattered Clouds
8:36 PM 14.0 °F 2.9 °F 14.0 °F 100% 29.96 in 10.0 mi West 8.1 mph - N/A   Mostly Cloudy
8:55 PM 14.0 °F 3.9 °F 12.2 °F 93% 29.96 in 10.0 mi West 6.9 mph - N/A   Mostly Cloudy
9:16 PM 14.0 °F 6.5 °F 12.2 °F 93% 29.95 in 10.0 mi West 4.6 mph - N/A   Clear
9:36 PM 14.0 °F 6.5 °F 12.2 °F 93% 29.96 in 10.0 mi West 4.6 mph - N/A   Clear
10:16 PM 12.2 °F 4.3 °F 10.4 °F 92% 29.95 in 10.0 mi SW 4.6 mph - N/A   Clear
10:36 PM 12.2 °F 6.1 °F 10.4 °F 92% 29.95 in 10.0 mi SW 3.5 mph - N/A   Clear
10:55 PM 10.4 °F - 10.4 °F 100% 29.95 in 10.0 mi Calm Calm - N/A   Scattered Clouds
11:16 PM 10.4 °F 4.0 °F 10.4 °F 100% 29.94 in 10.0 mi SSW 3.5 mph - N/A   Overcast
11:36 PM 10.4 °F 4.0 °F 8.6 °F 92% 29.93 in 10.0 mi South 3.5 mph - N/A   Overcast
11:55 PM 10.4 °F 2.2 °F 10.4 °F 100% 29.93 in 10.0 mi South 4.6 mph - N/A   Overcast